Time;durP1;ratioP1;P1;durP2;ratioP2;P2;SDS_P1;SDS_P2;PMS_P1;PMS_P2;Temp;Humidity;BMP_temperature;BMP_pressure;BME280_temperature;BME280_humidity;BME280_pressure;Samples;Min_cycle;Max_cycle;Signal;HPM_P1;HPM_P2
2021/11/30 00:00:00;;;;;;;17.70;12.80;;;;;;;3.65;79.95;93160.84;5093729;28;20036;-71
2021/11/30 00:02:25;;;;;;;18.83;11.43;;;;;;;3.69;79.55;93172.50;5110874;28;20020;-72
2021/11/30 00:04:51;;;;;;;15.98;10.40;;;;;;;3.77;79.05;93175.25;5093615;28;20505;-73
2021/11/30 00:07:16;;;;;;;14.70;9.75;;;;;;;3.68;80.01;93169.13;5112051;28;20111;-73
2021/11/30 00:12:12;;;;;;;14.10;9.07;;;;;;;3.65;78.76;93159.13;5110748;28;20012;-71
2021/11/30 00:14:39;;;;;;;8.93;7.00;;;;;;;3.81;78.52;93171.50;5094297;28;20043;-73
2021/11/30 00:17:04;;;;;;;8.88;6.90;;;;;;;3.78;78.67;93171.75;5093759;28;20115;-72
2021/11/30 00:19:30;;;;;;;9.00;6.95;;;;;;;3.81;79.36;93168.91;5093631;28;20652;-71
2021/11/30 00:21:55;;;;;;;12.93;7.60;;;;;;;3.79;79.26;93163.94;5093564;28;20058;-71
2021/11/30 00:24:23;;;;;;;8.75;7.53;;;;;;;3.79;79.90;93166.50;5093576;28;20493;-72
2021/11/30 00:26:49;;;;;;;8.55;6.50;;;;;;;3.79;79.34;93160.56;5093871;28;20043;-71
2021/11/30 00:29:14;;;;;;;9.45;6.38;;;;;;;3.77;79.54;93160.66;5111576;28;20063;-73
2021/11/30 00:31:39;;;;;;;9.40;7.47;;;;;;;3.74;79.93;93152.41;5110483;28;20043;-73
2021/11/30 00:34:05;;;;;;;12.00;9.20;;;;;;;3.71;79.73;93155.22;5093336;28;20040;-74
2021/11/30 00:36:30;;;;;;;28.65;19.20;;;;;;;3.65;79.81;93150.56;5110037;28;20206;-71
2021/11/30 00:38:56;;;;;;;34.75;23.10;;;;;;;3.77;79.76;93155.53;5110219;28;20035;-73
2021/11/30 00:41:21;;;;;;;44.05;26.92;;;;;;;3.72;79.87;93164.56;5110265;28;20421;-71
2021/11/30 00:43:48;;;;;;;38.45;26.55;;;;;;;3.66;80.06;93165.88;5110142;28;20390;-72
2021/11/30 00:48:58;;;;;;;38.50;24.40;;;;;;;3.61;81.02;93164.63;5110281;28;20047;-73
2021/11/30 00:51:23;;;;;;;38.78;25.60;;;;;;;3.59;81.15;93162.16;5110190;28;20396;-71
2021/11/30 00:53:49;;;;;;;31.23;22.00;;;;;;;3.56;81.16;93147.00;5111426;28;20039;-74
2021/11/30 00:56:14;;;;;;;20.15;13.80;;;;;;;3.65;81.13;93155.72;5110107;28;20024;-73
2021/11/30 00:58:40;;;;;;;12.90;9.38;;;;;;;3.61;80.78;93144.88;5093193;28;20459;-73
2021/11/30 01:01:05;;;;;;;9.57;7.05;;;;;;;3.66;80.12;93150.47;5092992;28;20557;-72
2021/11/30 01:03:31;;;;;;;9.88;6.68;;;;;;;3.70;80.03;93151.00;5111222;28;20028;-72
2021/11/30 01:05:57;;;;;;;9.82;6.60;;;;;;;3.77;79.76;93152.16;5076245;28;20077;-72
2021/11/30 01:08:22;;;;;;;10.70;7.13;;;;;;;3.80;79.44;93149.31;5093097;28;20036;-71
2021/11/30 01:10:48;;;;;;;27.02;17.70;;;;;;;3.78;79.84;93143.50;5110049;28;20038;-74
2021/11/30 01:13:15;;;;;;;38.58;24.88;;;;;;;3.76;80.18;93142.78;5109975;28;20027;-72
2021/11/30 01:15:40;;;;;;;46.97;29.13;;;;;;;3.64;81.01;93126.66;5110044;28;20031;-74
2021/11/30 01:18:06;;;;;;;43.20;28.33;;;;;;;3.54;80.63;93108.63;5109864;28;20063;-74
2021/11/30 01:20:31;;;;;;;45.15;29.27;;;;;;;3.55;81.05;93115.38;5093078;28;20546;-73
2021/11/30 01:22:57;;;;;;;46.10;31.15;;;;;;;3.43;81.81;93110.47;5092773;28;20039;-73
2021/11/30 01:25:23;;;;;;;42.33;28.58;;;;;;;3.44;81.64;93117.22;5076105;28;20121;-73
2021/11/30 01:27:49;;;;;;;42.10;29.02;;;;;;;3.36;81.62;93108.38;5109748;28;20024;-73
2021/11/30 01:30:15;;;;;;;40.22;25.23;;;;;;;3.42;81.29;93119.88;5109943;28;20496;-73
2021/11/30 01:32:41;;;;;;;42.70;29.08;;;;;;;3.36;81.69;93121.19;5109673;28;20027;-71
2021/11/30 01:35:07;;;;;;;40.00;24.73;;;;;;;3.49;81.58;93123.59;5109781;28;20078;-71
2021/11/30 01:37:34;;;;;;;46.42;29.42;;;;;;;3.51;81.61;93114.03;5109712;28;20040;-72
2021/11/30 01:39:59;;;;;;;40.28;26.42;;;;;;;3.48;81.07;93104.00;5109549;28;20034;-71
2021/11/30 01:42:25;;;;;;;39.50;27.27;;;;;;;3.71;80.71;93130.34;5109632;28;20035;-73
2021/11/30 01:45:02;;;;;;;46.58;26.92;;;;;;;3.73;79.95;93109.66;5092818;28;20032;-73
2021/11/30 01:49:56;;;;;;;39.72;26.55;;;;;;;3.83;80.43;93125.13;5112127;28;20027;-73
2021/11/30 01:52:22;;;;;;;37.90;26.00;;;;;;;3.79;80.02;93127.16;5096540;28;20417;-73
2021/11/30 01:54:49;;;;;;;36.15;25.23;;;;;;;3.78;80.81;93125.50;5096489;28;20034;-73
2021/11/30 01:57:15;;;;;;;36.88;24.45;;;;;;;3.69;80.81;93116.00;5096736;28;20027;-74
2021/11/30 01:59:41;;;;;;;38.75;22.88;;;;;;;3.88;80.17;93134.09;5113358;28;20028;-72
2021/11/30 02:02:07;;;;;;;27.45;18.95;;;;;;;3.90;80.19;93137.34;5079408;28;20039;-71
2021/11/30 02:04:32;;;;;;;22.73;17.08;;;;;;;3.92;79.13;93148.28;5096049;28;20094;-72
2021/11/30 02:06:58;;;;;;;10.60;6.65;;;;;;;3.74;74.21;93145.50;5079201;28;20020;-73
2021/11/30 02:09:23;;;;;;;7.00;4.93;;;;;;;3.61;74.06;93156.91;5096145;28;20482;-73
2021/11/30 02:11:50;;;;;;;5.05;3.42;;;;;;;3.22;73.71;93159.19;5096155;28;20501;-73
2021/11/30 02:14:15;;;;;;;4.18;3.10;;;;;;;3.00;73.80;93160.91;5113050;28;20032;-73
2021/11/30 02:16:41;;;;;;;3.13;1.80;;;;;;;3.03;72.18;93165.78;5113361;28;20151;-73
2021/11/30 02:19:06;;;;;;;2.10;1.30;;;;;;;2.75;73.09;93156.09;5114163;28;20500;-73
2021/11/30 02:21:35;;;;;;;2.00;1.20;;;;;;;2.59;73.54;93156.47;5114055;27;20034;-74
2021/11/30 02:24:00;;;;;;;2.03;1.20;;;;;;;2.58;73.53;93165.91;5096040;28;20432;-74
2021/11/30 02:26:27;;;;;;;2.45;1.20;;;;;;;2.45;73.88;93178.88;5078905;28;20035;-74
2021/11/30 02:28:56;;;;;;;1.73;1.00;;;;;;;2.35;74.42;93177.13;5095837;28;20039;-73
2021/11/30 02:31:21;;;;;;;1.10;0.65;;;;;;;2.33;73.73;93172.13;5079754;28;20130;-73
2021/11/30 02:33:47;;;;;;;1.55;0.80;;;;;;;2.16;74.82;93181.09;5078793;28;20031;-74
2021/11/30 02:36:20;;;;;;;2.65;1.05;;;;;;;1.96;75.37;93189.47;5112598;28;20059;-73
2021/11/30 02:38:46;;;;;;;2.83;1.38;;;;;;;1.96;74.97;93194.59;5112786;28;20020;-74
2021/11/30 02:41:11;;;;;;;0.93;0.60;;;;;;;1.82;75.40;93189.69;5112507;28;20031;-74
2021/11/30 02:43:37;;;;;;;1.00;0.70;;;;;;;1.94;75.20;93206.69;5113675;28;20029;-73
2021/11/30 02:46:02;;;;;;;2.00;0.75;;;;;;;1.65;76.33;93202.00;5078455;28;20031;-74
2021/11/30 02:48:28;;;;;;;1.88;1.05;;;;;;;1.64;76.37;93210.59;5095373;28;20030;-73
2021/11/30 02:50:53;;;;;;;1.60;0.80;;;;;;;1.47;76.47;93216.94;5112259;28;20024;-73
2021/11/30 02:53:21;;;;;;;1.30;0.70;;;;;;;1.29;78.07;93216.53;5113617;27;20027;-75
2021/11/30 02:55:46;;;;;;;1.42;0.80;;;;;;;1.30;78.22;93218.16;5112285;28;20031;-75
2021/11/30 02:58:12;;;;;;;1.17;0.70;;;;;;;1.15;78.36;93221.84;5113465;28;20557;-73
2021/11/30 03:00:38;;;;;;;1.63;0.82;;;;;;;1.21;78.42;93236.75;5112065;28;20077;-73
2021/11/30 03:03:03;;;;;;;3.88;2.10;;;;;;;1.24;78.41;93240.81;5112101;28;20023;-74
2021/11/30 03:05:29;;;;;;;2.15;1.10;;;;;;;1.26;77.86;93244.91;5095125;28;20070;-73
2021/11/30 03:07:54;;;;;;;1.70;0.85;;;;;;;1.22;77.24;93252.91;5112340;28;20079;-73
2021/11/30 03:10:20;;;;;;;4.05;1.23;;;;;;;1.28;77.69;93255.88;5113556;28;20035;-73
2021/11/30 03:12:46;;;;;;;3.45;2.00;;;;;;;1.06;78.24;93254.00;5094969;28;20474;-73
2021/11/30 03:15:14;;;;;;;0.80;0.60;;;;;;;1.20;77.92;93264.97;5112070;28;20035;-74
2021/11/30 03:17:39;;;;;;;1.00;0.60;;;;;;;1.14;78.18;93271.34;5078184;28;20180;-73
2021/11/30 03:20:05;;;;;;;1.45;0.70;;;;;;;0.99;78.92;93270.69;5077701;28;20497;-73
2021/11/30 03:22:31;;;;;;;1.23;0.80;;;;;;;0.89;79.33;93280.75;5094752;28;20051;-73
2021/11/30 03:24:56;;;;;;;1.27;0.70;;;;;;;0.99;78.78;93282.66;5113077;28;20070;-75
2021/11/30 03:27:22;;;;;;;1.42;0.70;;;;;;;1.03;78.75;93286.63;5077811;28;20024;-73
2021/11/30 03:29:47;;;;;;;1.17;0.70;;;;;;;0.92;79.65;93292.53;5094680;28;20096;-73
2021/11/30 03:33:58;;;;;;;1.13;0.70;;;;;;;0.94;79.17;93287.28;5112831;28;20085;-74
2021/11/30 03:34:59;;;;;;;1.55;0.75;;;;;;;0.87;78.50;93299.69;5111694;28;20131;-74
2021/11/30 03:37:25;;;;;;;0.93;0.60;;;;;;;0.78;79.34;93308.81;5094728;28;20401;-74
2021/11/30 03:39:52;;;;;;;2.15;1.13;;;;;;;0.81;78.90;93297.56;5094694;28;20074;-74
2021/11/30 03:42:17;;;;;;;1.90;0.80;;;;;;;0.87;79.28;93307.34;5112531;28;20031;-73
2021/11/30 03:44:42;;;;;;;1.90;1.02;;;;;;;0.85;79.11;93324.53;5077435;28;20039;-74
2021/11/30 03:47:08;;;;;;;1.27;0.80;;;;;;;1.05;78.33;93315.47;5111444;28;20482;-74
2021/11/30 03:49:33;;;;;;;1.10;0.70;;;;;;;0.91;79.02;93320.75;5112731;28;20676;-74
2021/11/30 03:51:59;;;;;;;2.08;0.90;;;;;;;0.85;78.86;93325.34;5112447;28;20039;-74
2021/11/30 03:54:25;;;;;;;1.55;1.05;;;;;;;0.78;79.18;93338.66;5111184;28;20035;-74
2021/11/30 03:56:50;;;;;;;4.30;3.85;;;;;;;0.68;80.04;93323.13;5077309;28;20032;-74
2021/11/30 03:59:16;;;;;;;3.03;2.00;;;;;;;0.79;79.32;93328.31;5111061;28;20570;-74
2021/11/30 04:01:41;;;;;;;5.15;2.45;;;;;;;0.75;79.48;93329.44;5093958;28;20421;-75
2021/11/30 04:04:26;;;;;;;3.95;2.95;;;;;;;0.84;79.46;93343.38;5110711;28;20034;-74
2021/11/30 04:06:54;;;;;;;1.67;1.08;;;;;;;0.74;79.28;93343.16;5111146;28;20098;-74
2021/11/30 04:09:19;;;;;;;8.73;4.65;;;;;;;0.86;78.61;93346.63;5093910;28;20124;-74
2021/11/30 04:11:45;;;;;;;2.88;1.58;;;;;;;0.89;78.65;93356.63;5110140;28;20102;-75
2021/11/30 04:14:11;;;;;;;2.22;1.33;;;;;;;0.72;79.66;93349.28;5093858;28;20024;-73
2021/11/30 04:16:37;;;;;;;2.38;1.48;;;;;;;0.73;79.43;93358.63;5093808;28;20039;-74
2021/11/30 04:19:03;;;;;;;2.28;1.52;;;;;;;0.70;79.70;93364.75;5076709;28;20031;-74
2021/11/30 04:21:28;;;;;;;2.35;1.40;;;;;;;0.74;79.67;93376.38;5093558;28;20402;-75
2021/11/30 04:23:55;;;;;;;2.95;1.80;;;;;;;0.76;79.53;93382.22;5110544;28;20024;-74
2021/11/30 04:26:20;;;;;;;2.08;1.52;;;;;;;0.75;78.56;93375.47;5076979;28;20433;-73
2021/11/30 04:28:46;;;;;;;3.08;2.40;;;;;;;0.74;79.29;93388.38;5111963;28;20019;-74
2021/11/30 04:31:11;;;;;;;9.13;6.15;;;;;;;0.72;79.43;93387.63;5110413;28;20546;-74
2021/11/30 04:33:37;;;;;;;2.55;1.90;;;;;;;0.88;77.87;93391.63;5076611;28;20050;-74
2021/11/30 04:36:06;;;;;;;5.75;3.45;;;;;;;0.64;78.60;93394.09;5093263;28;20023;-74
2021/11/30 04:38:31;;;;;;;3.08;2.08;;;;;;;0.52;79.17;93384.69;5110397;28;20039;-74
2021/11/30 04:40:56;;;;;;;2.42;1.60;;;;;;;0.46;80.00;93405.53;5110226;28;20028;-75
2021/11/30 04:43:22;;;;;;;3.13;2.20;;;;;;;0.53;79.78;93413.59;5093458;28;20032;-74
2021/11/30 04:48:14;;;;;;;3.40;2.30;;;;;;;0.40;80.13;93424.63;5110304;28;20028;-74
2021/11/30 04:50:43;;;;;;;4.10;2.55;;;;;;;0.44;80.10;93431.16;5110374;28;20382;-74
2021/11/30 04:53:08;;;;;;;5.07;2.72;;;;;;;0.47;80.72;93435.25;5093582;28;20031;-74
2021/11/30 04:55:34;;;;;;;7.60;4.00;;;;;;;0.60;78.84;93442.97;5093328;28;20031;-73
2021/11/30 04:58:01;;;;;;;3.75;2.13;;;;;;;0.49;79.33;93440.28;5093374;28;20409;-74
2021/11/30 05:00:26;;;;;;;2.22;1.30;;;;;;;0.48;79.45;93449.69;5110211;28;20032;-74
2021/11/30 05:02:52;;;;;;;3.00;1.92;;;;;;;0.30;79.59;93445.75;5076166;28;20045;-74
2021/11/30 05:05:17;;;;;;;2.53;1.40;;;;;;;0.38;78.80;93458.88;5112660;28;20055;-74
2021/11/30 05:07:43;;;;;;;2.75;1.65;;;;;;;0.31;79.34;93465.31;5130444;28;20015;-74
2021/11/30 05:10:09;;;;;;;3.38;2.13;;;;;;;0.39;79.63;93478.38;5096233;28;20118;-74
2021/11/30 05:12:35;;;;;;;2.38;1.48;;;;;;;0.29;79.13;93474.78;5130556;28;20023;-74
2021/11/30 05:15:00;;;;;;;4.28;2.15;;;;;;;0.37;78.40;93491.28;5130338;28;20035;-74
2021/11/30 05:17:26;;;;;;;4.80;2.35;;;;;;;0.34;78.72;93488.09;5113369;28;20114;-75
2021/11/30 05:19:51;;;;;;;5.72;3.15;;;;;;;0.22;79.30;93499.91;5113323;28;20035;-74
2021/11/30 05:22:17;;;;;;;8.65;4.35;;;;;;;0.09;79.92;93494.75;5096222;28;20432;-73
2021/11/30 05:24:42;;;;;;;4.18;2.72;;;;;;;0.25;78.69;93502.25;5134196;27;20035;-73
2021/11/30 05:27:08;;;;;;;4.35;2.90;;;;;;;0.30;78.03;93515.56;5134615;27;20054;-73
2021/11/30 05:29:34;;;;;;;5.00;3.08;;;;;;;0.22;77.95;93507.56;5134519;27;20056;-74
2021/11/30 05:31:59;;;;;;;5.45;3.88;;;;;;;0.16;77.93;93516.44;5134587;27;20400;-73
2021/11/30 05:34:25;;;;;;;6.72;4.40;;;;;;;0.14;78.45;93522.53;5134461;27;20031;-73
2021/11/30 05:36:50;;;;;;;7.82;4.22;;;;;;;0.08;77.67;93528.03;5134468;27;20023;-73
2021/11/30 05:39:15;;;;;;;8.40;5.57;;;;;;;0.09;78.08;93534.81;5134379;27;20058;-74
2021/11/30 05:41:41;;;;;;;8.48;5.15;;;;;;;0.06;78.59;93535.00;5135473;27;20038;-74
2021/11/30 05:44:06;;;;;;;7.30;4.97;;;;;;;0.03;78.47;93540.28;5134145;27;20035;-74
2021/11/30 05:46:35;;;;;;;6.75;5.05;;;;;;;0.02;77.26;93548.84;5134277;27;20031;-74
2021/11/30 05:49:00;;;;;;;8.35;5.65;;;;;;;0.01;77.85;93560.00;5117337;27;20035;-74
2021/11/30 05:51:26;;;;;;;7.15;4.50;;;;;;;0.11;76.26;93538.06;5134090;27;20034;-73
2021/11/30 05:53:51;;;;;;;9.85;5.55;;;;;;;0.14;77.32;93553.19;5133870;27;20096;-73
2021/11/30 05:56:17;;;;;;;9.90;6.07;;;;;;;0.11;76.86;93558.50;5116812;27;20027;-73
2021/11/30 05:58:44;;;;;;;9.20;5.25;;;;;;;0.11;76.83;93576.38;5116742;27;20031;-73
2021/11/30 06:01:22;;;;;;;7.80;5.07;;;;;;;0.06;76.63;93576.69;5133670;27;20027;-73
2021/11/30 06:06:19;;;;;;;6.22;4.55;;;;;;;0.13;75.76;93587.31;5133947;27;20130;-73
2021/11/30 06:08:45;;;;;;;7.88;5.70;;;;;;;0.10;76.46;93597.72;5133810;27;20023;-73
2021/11/30 06:11:10;;;;;;;10.20;6.53;;;;;;;0.02;76.86;93599.94;5133580;27;20031;-73
2021/11/30 06:13:36;;;;;;;8.48;5.30;;;;;;;-0.08;77.73;93597.94;5133708;27;20028;-74
2021/11/30 06:16:01;;;;;;;11.23;5.88;;;;;;;0.08;76.49;93617.44;5133592;27;20034;-73
2021/11/30 06:18:27;;;;;;;8.25;4.57;;;;;;;0.04;76.41;93616.00;5099387;27;20546;-74
2021/11/30 06:20:52;;;;;;;7.60;5.00;;;;;;;0.07;76.10;93620.91;5133476;27;20485;-73
2021/11/30 06:23:17;;;;;;;7.85;4.85;;;;;;;0.27;74.29;93628.16;5133471;27;20027;-73
2021/11/30 06:25:43;;;;;;;8.27;5.47;;;;;;;0.18;76.15;93637.22;5116122;27;20035;-74
2021/11/30 06:28:08;;;;;;;9.88;5.65;;;;;;;0.05;76.84;93622.72;5116203;27;20488;-73
2021/11/30 06:30:34;;;;;;;7.57;5.22;;;;;;;0.02;76.53;93640.78;5099381;27;20058;-73
2021/11/30 06:32:59;;;;;;;7.88;5.40;;;;;;;-0.03;77.06;93644.44;5133424;27;20023;-73
2021/11/30 06:35:25;;;;;;;10.50;6.53;;;;;;;-0.06;76.77;93654.00;5098547;27;20091;-74
2021/11/30 06:37:51;;;;;;;7.00;4.60;;;;;;;-0.05;77.30;93659.03;5133171;27;20022;-73
2021/11/30 06:40:17;;;;;;;8.18;5.40;;;;;;;0.04;75.70;93664.50;5116186;27;20069;-73
2021/11/30 06:42:42;;;;;;;9.35;6.07;;;;;;;0.06;75.39;93655.84;5134271;27;20035;-73
2021/11/30 06:45:08;;;;;;;9.32;5.22;;;;;;;0.14;75.42;93678.34;5115997;27;20038;-73
2021/11/30 06:47:33;;;;;;;8.57;6.15;;;;;;;-0.05;76.31;93666.69;5098893;27;20083;-74
2021/11/30 06:49:59;;;;;;;9.18;5.43;;;;;;;0.09;75.27;93673.53;5115752;27;20512;-74
2021/11/30 06:52:24;;;;;;;9.07;6.00;;;;;;;0.01;76.17;93696.16;5132896;27;20499;-74
2021/11/30 06:54:54;;;;;;;8.20;5.97;;;;;;;0.10;75.54;93695.59;5132886;27;20092;-74
2021/11/30 06:57:19;;;;;;;7.32;5.32;;;;;;;0.05;75.49;93681.47;5116646;27;20107;-73
2021/11/30 06:59:45;;;;;;;7.50;5.57;;;;;;;0.11;75.81;93693.84;5132776;27;20031;-73
2021/11/30 07:02:12;;;;;;;9.50;5.10;;;;;;;0.21;75.06;93715.38;5132616;27;20027;-73
2021/11/30 07:04:42;;;;;;;8.68;5.80;;;;;;;0.18;75.91;93723.22;5133756;27;20058;-73
2021/11/30 07:07:34;;;;;;;8.20;5.68;;;;;;;0.11;74.41;93717.69;5132662;27;20023;-73
2021/11/30 07:15:09;;;;;;;8.10;5.97;;;;;;;-0.24;76.32;93733.31;5131818;27;20031;-74
2021/11/30 07:17:35;;;;;;;11.45;6.90;;;;;;;-0.08;76.16;93738.38;5115049;27;20038;-73
2021/11/30 07:20:01;;;;;;;8.93;6.03;;;;;;;-0.07;76.41;93745.09;5132436;27;20401;-73
2021/11/30 07:22:26;;;;;;;9.63;6.18;;;;;;;0.05;76.25;93763.19;5133417;27;20034;-74
2021/11/30 07:24:52;;;;;;;10.48;6.68;;;;;;;-0.02;75.98;93771.19;5132348;27;20031;-74
2021/11/30 07:27:17;;;;;;;8.50;6.45;;;;;;;-0.10;76.52;93768.28;5132254;27;20031;-74
2021/11/30 07:29:43;;;;;;;7.60;5.70;;;;;;;-0.28;76.57;93766.75;5132132;27;20019;-73
2021/11/30 07:32:08;;;;;;;9.45;6.65;;;;;;;-0.25;77.13;93792.97;5132149;27;20042;-74
2021/11/30 07:34:34;;;;;;;8.35;6.15;;;;;;;-0.21;77.06;93791.03;5115003;27;20412;-73
2021/11/30 07:37:00;;;;;;;11.02;7.93;;;;;;;-0.17;75.91;93781.47;5132000;27;20153;-72
2021/11/30 07:39:25;;;;;;;9.00;5.60;;;;;;;-0.23;76.11;93790.31;5114851;27;20110;-72
2021/11/30 07:41:51;;;;;;;8.88;6.25;;;;;;;-0.21;76.98;93795.34;5114735;27;20500;-72
2021/11/30 07:44:16;;;;;;;9.27;6.47;;;;;;;-0.16;76.11;93801.81;5131769;27;20413;-72
2021/11/30 07:46:42;;;;;;;9.25;7.00;;;;;;;-0.16;76.81;93804.38;5113697;27;20059;-72
2021/11/30 07:49:07;;;;;;;10.32;7.65;;;;;;;-0.12;75.80;93818.59;5097617;27;20458;-72
2021/11/30 07:51:33;;;;;;;9.43;6.43;;;;;;;0.01;74.30;93817.91;5131765;27;20378;-72
2021/11/30 07:53:59;;;;;;;8.95;6.68;;;;;;;0.07;74.96;93830.31;5132901;27;20474;-73
2021/11/30 07:56:25;;;;;;;10.43;6.45;;;;;;;0.03;75.08;93836.50;5114554;27;20048;-74
2021/11/30 07:58:50;;;;;;;9.77;7.28;;;;;;;0.18;73.90;93838.19;5131520;27;20027;-73
2021/11/30 08:01:16;;;;;;;10.77;7.80;;;;;;;-0.06;74.55;93822.53;5131398;27;20023;-73
2021/11/30 08:03:43;;;;;;;10.60;7.57;;;;;;;0.08;74.66;93855.75;5131529;27;20475;-73
2021/11/30 08:06:09;;;;;;;11.20;8.27;;;;;;;0.01;74.91;93848.56;5131740;27;20057;-73
2021/11/30 08:08:35;;;;;;;18.33;8.20;;;;;;;0.03;74.93;93867.13;5132569;27;20052;-73
2021/11/30 08:11:00;;;;;;;14.43;10.13;;;;;;;-0.02;74.85;93875.91;5132439;27;20024;-73
2021/11/30 08:13:25;;;;;;;10.27;7.72;;;;;;;0.01;74.62;93891.97;5132588;27;20031;-73
2021/11/30 08:15:51;;;;;;;11.98;8.80;;;;;;;-0.03;73.35;93874.25;5132904;27;20032;-73
2021/11/30 08:18:16;;;;;;;13.85;8.85;;;;;;;-0.14;73.43;93876.59;5131302;27;20481;-73
2021/11/30 08:20:42;;;;;;;12.35;9.65;;;;;;;-0.13;74.20;93891.00;5132277;27;20112;-73
2021/11/30 08:23:07;;;;;;;11.35;8.77;;;;;;;-0.03;72.19;93904.91;5131066;27;20091;-73
2021/11/30 08:25:33;;;;;;;12.32;8.30;;;;;;;-0.20;73.17;93902.44;5131379;27;20112;-73
2021/11/30 08:27:58;;;;;;;13.15;8.13;;;;;;;-0.02;72.63;93910.84;5132293;27;20019;-73
2021/11/30 08:30:24;;;;;;;13.73;9.65;;;;;;;-0.03;74.15;93917.69;5114070;27;20050;-73
2021/11/30 08:32:49;;;;;;;13.27;9.45;;;;;;;0.01;73.03;93909.84;5130894;27;20024;-72
2021/11/30 08:35:15;;;;;;;14.75;9.80;;;;;;;0.09;73.21;93925.56;5132491;27;20491;-73
2021/11/30 08:37:40;;;;;;;16.35;10.35;;;;;;;-0.09;74.67;93925.66;5130957;27;20027;-73
2021/11/30 08:40:07;;;;;;;14.23;10.30;;;;;;;-0.30;75.72;93904.69;5132305;27;20588;-73
2021/11/30 08:42:32;;;;;;;15.00;10.18;;;;;;;-0.18;75.06;93925.34;5096638;27;20042;-73
2021/11/30 08:44:58;;;;;;;15.02;10.13;;;;;;;-0.13;74.52;93923.38;5130717;27;20031;-73
2021/11/30 08:47:23;;;;;;;14.88;10.60;;;;;;;-0.03;74.02;93924.50;5113718;27;20079;-73
2021/11/30 08:49:50;;;;;;;17.02;10.77;;;;;;;0.02;73.98;93934.47;5130939;27;20460;-72
2021/11/30 08:52:18;;;;;;;13.93;10.20;;;;;;;0.01;74.19;93935.38;5130728;27;20030;-74
2021/11/30 08:54:45;;;;;;;15.05;9.25;;;;;;;-0.07;73.85;93939.16;5130680;27;20400;-73
2021/11/30 08:57:10;;;;;;;13.93;9.48;;;;;;;0.04;73.01;93946.22;5113563;27;20035;-74
2021/11/30 08:59:37;;;;;;;12.75;9.18;;;;;;;0.10;72.04;93971.44;5130363;27;20038;-72
2021/11/30 09:02:02;;;;;;;13.95;8.80;;;;;;;0.01;71.97;93966.03;5130543;27;20027;-74
2021/11/30 09:04:28;;;;;;;14.90;9.55;;;;;;;-0.01;72.79;93968.66;5113431;28;20160;-73
2021/11/30 09:06:53;;;;;;;14.15;9.77;;;;;;;-0.11;71.75;93972.59;5130577;28;20037;-73
2021/11/30 09:09:19;;;;;;;13.60;9.95;;;;;;;-0.17;73.07;93971.22;5130539;28;20042;-73
2021/11/30 09:11:45;;;;;;;12.65;9.75;;;;;;;-0.17;72.13;93990.81;5113399;28;20019;-73
2021/11/30 09:14:11;;;;;;;13.43;9.52;;;;;;;-0.23;72.54;93974.09;5113342;28;20027;-73
2021/11/30 09:16:37;;;;;;;18.67;11.32;;;;;;;-0.23;72.15;93986.88;5130501;28;20023;-73
2021/11/30 09:19:03;;;;;;;21.45;12.23;;;;;;;-0.04;71.94;93996.91;5131691;27;20054;-73
2021/11/30 09:21:29;;;;;;;25.50;15.73;;;;;;;0.03;72.20;94005.03;5113318;28;20023;-73
2021/11/30 09:23:55;;;;;;;14.93;10.27;;;;;;;0.10;70.67;94002.06;5130369;28;20031;-73
2021/11/30 09:26:20;;;;;;;12.35;8.85;;;;;;;-0.06;70.77;94002.09;5113272;28;20114;-74
2021/11/30 09:28:46;;;;;;;13.43;9.82;;;;;;;0.08;71.25;94003.88;5113337;28;20102;-73
2021/11/30 09:31:12;;;;;;;17.58;11.13;;;;;;;0.07;71.20;94002.25;5096120;28;20108;-73
2021/11/30 09:33:39;;;;;;;11.77;8.60;;;;;;;0.22;68.25;93998.03;5130329;28;20031;-73
2021/11/30 09:36:06;;;;;;;19.33;12.82;;;;;;;0.35;70.57;94006.66;5113376;28;20019;-74
2021/11/30 09:38:32;;;;;;;32.00;16.90;;;;;;;0.35;71.75;94021.16;5131410;27;20020;-74
2021/11/30 09:40:58;;;;;;;21.48;11.77;;;;;;;0.43;70.63;94030.06;5131342;27;20019;-73
2021/11/30 09:43:25;;;;;;;20.30;12.43;;;;;;;0.38;69.31;94018.44;5131342;27;20027;-74
2021/11/30 09:45:50;;;;;;;24.33;15.15;;;;;;;0.43;70.10;94017.28;5113332;28;20140;-74
2021/11/30 09:48:16;;;;;;;18.45;12.77;;;;;;;0.49;70.67;94020.41;5130253;28;20027;-73
2021/11/30 09:50:42;;;;;;;23.23;14.63;;;;;;;0.53;69.21;94032.09;5130342;28;20039;-74
2021/11/30 09:53:08;;;;;;;15.10;10.60;;;;;;;0.56;68.69;94027.66;5130097;28;20051;-74
2021/11/30 09:55:36;;;;;;;14.68;10.23;;;;;;;0.77;67.89;94027.31;5131728;27;20065;-74
2021/11/30 09:58:01;;;;;;;20.95;11.02;;;;;;;0.63;67.78;94038.34;5130075;28;20027;-74
2021/11/30 10:00:26;;;;;;;15.38;10.48;;;;;;;0.70;67.65;94049.88;5131644;27;20032;-74
2021/11/30 10:02:54;;;;;;;30.25;16.55;;;;;;;0.57;68.56;94036.13;5129973;28;20028;-74
2021/11/30 10:05:20;;;;;;;19.10;12.88;;;;;;;0.74;67.36;94042.84;5112991;28;20051;-74
2021/11/30 10:07:48;;;;;;;14.20;10.10;;;;;;;0.49;67.58;94022.97;5112982;28;20027;-74
2021/11/30 10:10:17;;;;;;;21.30;11.75;;;;;;;0.67;68.34;94047.50;5097659;27;20160;-74
2021/11/30 10:12:43;;;;;;;13.93;8.90;;;;;;;0.69;67.02;94037.16;5134948;27;20031;-74
2021/11/30 10:15:10;;;;;;;13.20;10.23;;;;;;;0.60;66.85;94043.63;5133565;27;20050;-74
2021/11/30 10:17:37;;;;;;;13.55;8.45;;;;;;;0.49;66.63;94033.19;5116612;27;20031;-74
2021/11/30 10:20:07;;;;;;;14.27;9.95;;;;;;;0.51;66.56;94055.19;5133483;27;20481;-74
2021/11/30 10:22:54;;;;;;;20.25;12.98;;;;;;;0.61;65.02;94055.47;5134703;27;20038;-74
2021/11/30 10:25:26;;;;;;;13.32;9.30;;;;;;;0.61;67.11;94058.88;5135051;27;20051;-74
2021/11/30 10:27:53;;;;;;;11.25;8.40;;;;;;;0.62;65.87;94059.69;5116203;27;20031;-74
2021/11/30 10:30:21;;;;;;;14.13;9.93;;;;;;;0.43;67.32;94055.59;5133511;27;20039;-74
2021/11/30 10:32:46;;;;;;;14.40;9.48;;;;;;;0.44;66.94;94059.78;5116417;27;20106;-73
2021/11/30 10:35:15;;;;;;;10.90;7.80;;;;;;;0.44;65.66;94072.56;5133308;27;20068;-74
2021/11/30 10:37:42;;;;;;;11.50;8.45;;;;;;;0.40;67.25;94068.56;5116166;27;20027;-74
2021/11/30 10:40:09;;;;;;;24.65;15.88;;;;;;;0.43;67.40;94077.78;5133165;27;20393;-73
2021/11/30 10:42:43;;;;;;;11.80;8.10;;;;;;;0.32;66.93;94069.88;5133323;27;20058;-74
2021/11/30 10:45:08;;;;;;;14.55;9.80;;;;;;;0.43;65.42;94091.38;5117091;27;20031;-73
2021/11/30 10:47:36;;;;;;;23.50;13.50;;;;;;;0.43;66.31;94077.78;5134271;27;20020;-74
2021/11/30 10:50:11;;;;;;;17.25;10.77;;;;;;;0.42;64.88;94076.97;5132818;27;20137;-74
2021/11/30 10:52:42;;;;;;;25.15;13.73;;;;;;;0.49;65.42;94080.00;5116079;27;20420;-74
2021/11/30 10:55:12;;;;;;;;;;;;;;;0.41;65.45;94082.16;5116799;27;20031;-74
2021/11/30 10:57:38;;;;;;;18.42;12.50;;;;;;;0.42;64.61;94069.31;5134030;27;19915;-74
2021/11/30 11:00:19;;;;;;;20.38;13.15;;;;;;;0.58;65.21;94069.25;5115718;27;20396;-74
2021/11/30 11:03:11;;;;;;;26.77;16.67;;;;;;;0.68;62.69;94073.88;5133881;27;20458;-74
2021/11/30 11:05:39;;;;;;;22.08;14.25;;;;;;;0.60;64.38;94071.75;5133244;27;20177;-74
2021/11/30 11:08:17;;;;;;;56.13;24.95;;;;;;;0.51;63.92;94067.97;5132649;27;20100;-74
2021/11/30 11:11:02;;;;;;;27.02;16.23;;;;;;;0.60;64.10;94066.63;5132815;27;20035;-74
2021/11/30 11:13:29;;;;;;;39.45;18.40;;;;;;;0.81;63.32;94062.06;5132642;27;20068;-73
2021/11/30 11:15:56;;;;;;;42.72;22.75;;;;;;;0.90;65.75;94064.06;5132400;27;20497;-74
2021/11/30 11:18:35;;;;;;;17.80;12.65;;;;;;;1.05;65.52;94072.59;5133662;27;20028;-74
2021/11/30 11:21:10;;;;;;;24.20;13.80;;;;;;;1.09;64.31;94080.03;5115477;27;20031;-74
2021/11/30 11:23:37;;;;;;;17.05;12.15;;;;;;;1.24;62.79;94077.47;5132222;27;20023;-74
2021/11/30 11:26:28;;;;;;;13.52;9.07;;;;;;;1.24;62.04;94083.41;5115044;27;20113;-74
2021/11/30 11:28:54;;;;;;;14.87;10.60;;;;;;;1.30;61.51;94090.72;5115762;27;20038;-74
2021/11/30 11:31:20;;;;;;;14.00;10.50;;;;;;;1.32;62.36;94091.47;5115048;27;20023;-75
2021/11/30 11:33:46;;;;;;;14.50;10.43;;;;;;;1.28;61.85;94087.47;5115059;27;20521;-74
2021/11/30 11:36:11;;;;;;;19.20;12.55;;;;;;;1.38;63.04;94081.81;5133198;27;20026;-74
2021/11/30 11:38:37;;;;;;;12.82;8.52;;;;;;;1.32;62.36;94091.47;5133163;27;20026;-74
2021/11/30 11:41:03;;;;;;;12.75;9.57;;;;;;;1.47;61.76;94074.38;5131868;27;20042;-73
2021/11/30 11:43:28;;;;;;;12.23;8.18;;;;;;;1.57;61.59;94084.91;5114589;27;20034;-73
2021/11/30 11:45:53;;;;;;;10.65;7.88;;;;;;;1.45;62.05;94067.72;5114695;27;20046;-74
2021/11/30 11:48:19;;;;;;;14.77;9.77;;;;;;;1.30;61.94;94092.47;5114702;27;20035;-74